Time;durP1;ratioP1;P1;durP2;ratioP2;P2;SDS_P1;SDS_P2;PMS_P1;PMS_P2;Temp;Humidity;BMP_temperature;BMP_pressure;BME280_temperature;BME280_humidity;BME280_pressure;Samples;Min_cycle;Max_cycle;Signal;HPM_P1;HPM_P2
2020/12/31 00:02:04;;;;;;;8.70;5.55;;;4.20;99.90;;;;;;5029546;28;20076;-81
2020/12/31 00:04:29;;;;;;;13.52;6.13;;;4.10;99.90;;;;;;5030329;28;20056;-80
2020/12/31 00:07:21;;;;;;;12.15;5.57;;;4.00;99.90;;;;;;5029355;28;20029;-80
2020/12/31 00:09:47;;;;;;;12.50;6.82;;;4.00;99.90;;;;;;5046488;28;20044;-82
2020/12/31 00:12:13;;;;;;;14.40;5.90;;;4.00;99.90;;;;;;5029893;28;20068;-82
2020/12/31 00:14:53;;;;;;;30.85;7.32;;;3.90;99.90;;;;;;5025897;28;20046;-80
2020/12/31 00:17:19;;;;;;;10.23;5.68;;;3.90;99.90;;;;;;5026978;28;20388;-81
2020/12/31 00:19:53;;;;;;;10.98;5.82;;;4.00;99.90;;;;;;5026537;28;20045;-80
2020/12/31 00:22:22;;;;;;;16.15;7.22;;;3.80;99.90;;;;;;5026332;28;20037;-81
2020/12/31 00:24:48;;;;;;;9.20;5.63;;;3.80;99.90;;;;;;5026610;28;20041;-82
2020/12/31 00:27:14;;;;;;;13.43;6.45;;;3.80;99.90;;;;;;5026273;28;20022;-80
2020/12/31 00:29:39;;;;;;;10.70;6.03;;;3.70;99.90;;;;;;5025902;28;20061;-80
2020/12/31 00:32:08;;;;;;;13.68;7.03;;;3.70;99.90;;;;;;5026205;28;20486;-81
2020/12/31 00:34:42;;;;;;;12.75;7.25;;;3.70;99.90;;;;;;5027273;28;20053;-82
2020/12/31 00:37:34;;;;;;;12.43;6.68;;;3.80;99.90;;;;;;5025732;28;20076;-83
2020/12/31 00:43:08;;;;;;;14.00;7.47;;;3.70;99.90;;;;;;5026496;28;20049;-82
2020/12/31 00:45:37;;;;;;;14.50;7.18;;;3.60;99.90;;;;;;5026126;28;20041;-83
2020/12/31 00:48:12;;;;;;;12.05;6.82;;;3.70;99.90;;;;;;5025925;28;20034;-80
2020/12/31 00:50:38;;;;;;;19.40;8.15;;;3.60;99.90;;;;;;5026963;28;20116;-80
2020/12/31 00:53:03;;;;;;;14.27;6.60;;;3.60;99.90;;;;;;5027393;28;20481;-80
2020/12/31 00:55:29;;;;;;;16.77;8.32;;;3.60;99.90;;;;;;5025859;28;20033;-81
2020/12/31 00:57:54;;;;;;;17.13;9.02;;;3.60;99.90;;;;;;5025745;28;20029;-82
2020/12/31 01:00:20;;;;;;;17.20;8.13;;;3.50;99.90;;;;;;5026220;28;20033;-82
2020/12/31 01:02:47;;;;;;;19.73;8.30;;;3.60;99.90;;;;;;5026902;28;20029;-80
2020/12/31 01:05:15;;;;;;;16.20;8.23;;;3.50;99.90;;;;;;5025729;28;20060;-80
2020/12/31 01:07:40;;;;;;;18.10;9.05;;;3.50;99.90;;;;;;5025745;28;20026;-79
2020/12/31 01:10:07;;;;;;;20.48;8.50;;;3.50;99.90;;;;;;5025115;28;20044;-80
2020/12/31 01:12:37;;;;;;;18.48;9.23;;;3.50;99.90;;;;;;5025481;28;20049;-81
2020/12/31 01:15:05;;;;;;;14.77;7.40;;;3.60;99.90;;;;;;5028807;28;20037;-80
2020/12/31 01:17:33;;;;;;;28.75;10.98;;;3.40;99.90;;;;;;5046205;28;20081;-81
2020/12/31 01:19:58;;;;;;;33.80;12.25;;;3.50;99.90;;;;;;5046755;28;20021;-80
2020/12/31 01:22:43;;;;;;;28.10;10.35;;;3.50;99.90;;;;;;5028514;28;20028;-77
2020/12/31 01:25:09;;;;;;;21.10;9.80;;;3.40;99.90;;;;;;5013488;28;20140;-78
2020/12/31 01:27:38;;;;;;;21.35;9.50;;;3.40;99.90;;;;;;5046040;28;20048;-78
2020/12/31 01:30:03;;;;;;;25.42;11.43;;;3.40;99.90;;;;;;5028420;28;20119;-82
2020/12/31 01:32:32;;;;;;;35.17;9.75;;;3.40;99.90;;;;;;5027913;28;20029;-81
2020/12/31 01:35:15;;;;;;;20.20;10.77;;;3.40;99.90;;;;;;5028088;28;20087;-82
2020/12/31 01:37:41;;;;;;;15.00;8.65;;;3.40;99.90;;;;;;5027887;28;20033;-83
2020/12/31 01:40:16;;;;;;;19.58;8.35;;;3.40;99.90;;;;;;5027340;28;20122;-82
2020/12/31 01:42:51;;;;;;;25.23;9.88;;;3.40;99.90;;;;;;5027973;28;20122;-80
2020/12/31 01:45:20;;;;;;;25.00;10.48;;;3.40;99.90;;;;;;5026952;28;20075;-82
2020/12/31 01:47:45;;;;;;;18.33;9.20;;;3.40;99.90;;;;;;5028763;28;20029;-78
2020/12/31 01:50:21;;;;;;;23.95;11.07;;;3.40;99.90;;;;;;5043524;28;20030;-81
2020/12/31 01:53:24;;;;;;;20.60;8.52;;;3.30;99.90;;;;;;5025121;28;20026;-81
2020/12/31 01:59:25;;;;;;;20.08;8.40;;;3.30;99.90;;;;;;5043816;28;20043;-81
2020/12/31 02:01:52;;;;;;;16.98;8.75;;;3.40;99.90;;;;;;5026776;28;20037;-80
2020/12/31 02:05:08;;;;;;;14.80;8.27;;;3.30;99.90;;;;;;5027612;28;20500;-81
2020/12/31 02:11:18;;;;;;;17.13;8.13;;;3.20;99.90;;;;;;4937170;28;20031;-80
2020/12/31 02:13:47;;;;;;;17.02;7.22;;;3.20;99.90;;;;;;4964289;28;20065;-79
2020/12/31 02:16:21;;;;;;;20.88;9.05;;;3.20;99.90;;;;;;5018864;28;20033;-80
2020/12/31 02:18:57;;;;;;;19.58;9.02;;;3.20;99.90;;;;;;5028152;28;20057;-81
2020/12/31 02:21:38;;;;;;;14.63;7.97;;;3.10;99.90;;;;;;5027006;28;20033;-80
2020/12/31 02:24:15;;;;;;;19.33;8.23;;;3.20;99.90;;;;;;5010333;28;20081;-80
2020/12/31 02:26:42;;;;;;;20.13;8.50;;;3.00;99.90;;;;;;5045309;28;20029;-80
2020/12/31 02:29:09;;;;;;;14.05;7.60;;;3.10;99.90;;;;;;5027336;28;20025;-80
2020/12/31 02:31:36;;;;;;;16.90;7.13;;;3.10;99.90;;;;;;5027438;28;20092;-79
2020/12/31 02:34:08;;;;;;;18.92;8.65;;;3.10;99.90;;;;;;5025658;28;20041;-80
2020/12/31 02:36:37;;;;;;;18.70;8.05;;;3.10;99.90;;;;;;5027288;28;20026;-81
2020/12/31 02:39:08;;;;;;;16.35;7.13;;;3.10;99.90;;;;;;5027146;28;20025;-82
2020/12/31 02:41:37;;;;;;;19.20;8.40;;;3.20;99.90;;;;;;5026831;28;20029;-81
2020/12/31 02:44:06;;;;;;;15.77;7.65;;;3.10;99.90;;;;;;5026851;28;20477;-80
2020/12/31 02:46:32;;;;;;;22.90;8.73;;;3.10;99.90;;;;;;5026925;28;20116;-80
2020/12/31 02:49:05;;;;;;;12.57;6.57;;;3.30;99.90;;;;;;5044246;28;20021;-81
2020/12/31 02:51:36;;;;;;;19.45;8.38;;;3.20;99.90;;;;;;5044217;28;20029;-79
2020/12/31 02:54:34;;;;;;;20.25;6.88;;;3.00;99.90;;;;;;5026740;28;20028;-80
2020/12/31 02:57:15;;;;;;;20.90;9.07;;;3.10;99.90;;;;;;5025736;28;20033;-80
2020/12/31 02:59:41;;;;;;;18.98;7.63;;;3.20;99.90;;;;;;5026921;28;20026;-81
2020/12/31 03:02:06;;;;;;;19.70;8.25;;;3.10;99.90;;;;;;5026913;28;20032;-80
2020/12/31 03:04:32;;;;;;;12.20;6.68;;;3.10;99.90;;;;;;5026857;28;20049;-79
2020/12/31 03:06:57;;;;;;;11.30;5.78;;;3.20;99.90;;;;;;5044904;28;20385;-79
2020/12/31 03:09:23;;;;;;;15.40;6.63;;;3.10;99.90;;;;;;5026767;28;20026;-81
2020/12/31 03:11:48;;;;;;;11.25;6.35;;;3.20;99.90;;;;;;5044191;28;20029;-82
2020/12/31 03:14:14;;;;;;;20.67;8.27;;;3.20;99.90;;;;;;5028310;28;20049;-81
2020/12/31 03:16:39;;;;;;;12.02;6.57;;;3.20;99.90;;;;;;5026732;28;20037;-80
2020/12/31 03:19:08;;;;;;;11.20;6.13;;;3.30;99.90;;;;;;5026591;28;20125;-79
2020/12/31 03:21:33;;;;;;;16.10;8.05;;;3.30;99.90;;;;;;5026911;28;20097;-81
2020/12/31 03:23:59;;;;;;;18.45;7.90;;;3.40;99.90;;;;;;5026432;28;20088;-81
2020/12/31 03:26:24;;;;;;;15.65;7.97;;;3.30;99.90;;;;;;5044739;28;20037;-80
2020/12/31 03:28:50;;;;;;;12.93;6.53;;;3.40;99.90;;;;;;5044698;28;20025;-81
2020/12/31 03:31:15;;;;;;;15.18;6.75;;;3.40;99.90;;;;;;5044736;28;20033;-80
2020/12/31 03:33:41;;;;;;;13.60;6.88;;;3.40;99.90;;;;;;5026889;28;20050;-79
2020/12/31 03:36:07;;;;;;;19.50;8.27;;;3.40;99.90;;;;;;5026805;28;20025;-81
2020/12/31 03:38:33;;;;;;;17.00;7.80;;;3.40;99.90;;;;;;5026647;28;20045;-80
2020/12/31 03:40:58;;;;;;;19.88;7.18;;;3.40;99.90;;;;;;5026835;28;20025;-80
2020/12/31 03:43:24;;;;;;;19.40;7.95;;;3.40;99.90;;;;;;5026349;28;20426;-80
2020/12/31 03:45:50;;;;;;;16.00;5.97;;;3.40;99.90;;;;;;5043893;28;20033;-80
2020/12/31 03:48:15;;;;;;;14.35;7.57;;;3.40;99.90;;;;;;5026881;28;20021;-80
2020/12/31 03:50:41;;;;;;;12.50;5.82;;;3.40;99.90;;;;;;5044064;28;20033;-79
2020/12/31 03:53:07;;;;;;;13.25;7.32;;;3.30;99.90;;;;;;5044365;28;20049;-78
2020/12/31 03:55:33;;;;;;;16.23;6.60;;;3.40;99.90;;;;;;5026680;28;20033;-78
2020/12/31 03:57:59;;;;;;;18.17;6.50;;;3.40;99.90;;;;;;5026232;28;20037;-79
2020/12/31 04:00:25;;;;;;;13.30;6.82;;;3.40;99.90;;;;;;5026317;28;20017;-80
2020/12/31 04:02:50;;;;;;;18.92;7.65;;;3.40;99.90;;;;;;5026680;28;20487;-80
2020/12/31 04:05:16;;;;;;;18.35;7.18;;;3.50;99.90;;;;;;5044292;28;20084;-80
2020/12/31 04:07:42;;;;;;;14.77;7.40;;;3.40;99.90;;;;;;5026487;28;20512;-80
2020/12/31 04:10:07;;;;;;;15.05;7.53;;;3.40;99.90;;;;;;5044664;28;20424;-81
2020/12/31 04:12:33;;;;;;;11.48;7.15;;;3.40;99.90;;;;;;5025759;28;20025;-80
2020/12/31 04:14:58;;;;;;;15.70;7.28;;;3.40;99.90;;;;;;5026006;28;20397;-81
2020/12/31 04:17:24;;;;;;;13.00;5.65;;;3.40;99.90;;;;;;5043958;28;20072;-80
2020/12/31 04:19:50;;;;;;;15.15;6.43;;;3.40;99.90;;;;;;5043960;28;20025;-81
2020/12/31 04:22:15;;;;;;;15.60;7.13;;;3.40;99.90;;;;;;5026837;28;20026;-82
2020/12/31 04:24:41;;;;;;;15.90;7.82;;;3.40;99.90;;;;;;5026626;28;20048;-83
2020/12/31 04:27:07;;;;;;;12.45;6.68;;;3.40;99.90;;;;;;5047647;28;20048;-81
2020/12/31 04:29:32;;;;;;;16.23;6.72;;;3.40;99.90;;;;;;5029514;28;20036;-81
2020/12/31 04:32:07;;;;;;;11.70;6.95;;;3.40;99.90;;;;;;5029613;28;20052;-81
2020/12/31 04:34:32;;;;;;;12.60;5.47;;;3.50;99.90;;;;;;5046693;28;20071;-81
2020/12/31 04:40:26;;;;;;;11.35;6.20;;;3.40;99.90;;;;;;5039547;28;20049;-80
2020/12/31 04:43:05;;;;;;;14.88;8.10;;;3.50;99.90;;;;;;5046961;28;20057;-80
2020/12/31 04:45:30;;;;;;;11.73;5.50;;;3.40;99.90;;;;;;5028682;28;20149;-80
2020/12/31 04:48:05;;;;;;;12.70;6.82;;;3.50;99.90;;;;;;5029192;28;20025;-82
2020/12/31 04:50:39;;;;;;;14.15;7.50;;;3.50;99.90;;;;;;5029148;28;20025;-81
2020/12/31 04:53:07;;;;;;;;;;;3.60;99.90;;;;;;5029566;28;20029;-80
2020/12/31 04:55:45;;;;;;;19.40;6.63;;;3.50;99.90;;;;;;5045997;28;19905;-79
2020/12/31 04:58:13;;;;;;;14.63;6.70;;;3.50;99.90;;;;;;5025177;28;20033;-80
2020/12/31 05:07:06;;;;;;;13.70;7.93;;;3.50;99.90;;;;;;5045356;28;20068;-81
2020/12/31 05:11:20;;;;;;;;;;;;;;;;;;;;;
2020/12/31 05:16:39;;;;;;;11.57;7.32;;;3.50;99.90;;;;;;5045358;28;20036;-78
2020/12/31 05:23:45;;;;;;;16.88;9.30;;;3.40;99.90;;;;;;5043794;28;20088;-78
2020/12/31 05:27:11;;;;;;;18.13;7.30;;;3.60;99.90;;;;;;5027037;28;20044;-81
2020/12/31 05:30:06;;;;;;;;;;;3.40;99.90;;;;;;4943418;29;20051;-81
2020/12/31 05:32:50;;;;;;;22.15;8.27;;;3.40;99.90;;;;;;4928114;29;20339;-81
2020/12/31 05:35:31;;;;;;;18.25;9.13;;;3.50;99.90;;;;;;4944577;29;20047;-80
2020/12/31 05:41:41;;;;;;;11.23;6.70;;;3.50;99.90;;;;;;4943785;29;20120;-82
2020/12/31 05:45:02;;;;;;;20.50;8.27;;;3.50;99.90;;;;;;4944534;29;20088;-82
2020/12/31 05:48:09;;;;;;;14.73;8.20;;;3.50;99.90;;;;;;4980883;28;20130;-80
2020/12/31 05:51:25;;;;;;;17.58;8.65;;;3.50;99.90;;;;;;4987307;28;20045;-82
2020/12/31 05:54:28;;;;;;;17.02;7.45;;;3.50;99.90;;;;;;4987003;28;20034;-81
2020/12/31 05:57:52;;;;;;;11.63;6.70;;;3.60;99.90;;;;;;4987449;28;20038;-81
2020/12/31 06:00:54;;;;;;;21.23;9.75;;;3.60;99.90;;;;;;4957325;28;20097;-81
2020/12/31 06:13:52;;;;;;;23.02;8.77;;;3.80;99.90;;;;;;4906051;29;20091;-80
2020/12/31 06:16:22;;;;;;;14.68;6.65;;;3.70;99.90;;;;;;4892099;29;20036;-80
2020/12/31 06:19:39;;;;;;;18.58;7.85;;;3.70;99.90;;;;;;4954074;28;20034;-84
2020/12/31 06:26:25;;;;;;;21.00;8.25;;;3.70;99.90;;;;;;4899052;29;20144;-79
2020/12/31 06:29:15;;;;;;;13.48;7.68;;;3.80;99.90;;;;;;4944638;29;20027;-81
2020/12/31 06:35:41;;;;;;;18.23;9.25;;;3.70;99.90;;;;;;4944083;29;20038;-82
2020/12/31 06:38:09;;;;;;;17.75;7.75;;;3.80;99.90;;;;;;4969232;28;20065;-79
2020/12/31 06:40:36;;;;;;;21.92;9.63;;;3.70;99.90;;;;;;5044995;28;20033;-80
2020/12/31 06:43:14;;;;;;;17.48;8.00;;;3.70;99.90;;;;;;5043102;28;20025;-79
2020/12/31 06:45:46;;;;;;;18.67;9.98;;;3.70;99.90;;;;;;5027224;28;20040;-79
2020/12/31 06:48:27;;;;;;;16.55;8.63;;;3.70;99.90;;;;;;5026785;28;20032;-82
2020/12/31 06:51:00;;;;;;;14.05;7.35;;;3.70;99.90;;;;;;5045253;28;20029;-82
2020/12/31 06:53:45;;;;;;;25.38;10.35;;;3.70;99.90;;;;;;5027079;28;20160;-81
2020/12/31 06:56:12;;;;;;;15.75;9.18;;;3.70;99.90;;;;;;5045054;28;20441;-78
2020/12/31 06:58:39;;;;;;;14.02;7.63;;;3.70;99.90;;;;;;5044669;28;20030;-78
2020/12/31 07:01:29;;;;;;;18.73;9.80;;;3.70;99.90;;;;;;5044685;28;20081;-79
2020/12/31 07:03:56;;;;;;;16.95;8.20;;;3.70;99.90;;;;;;5044950;28;20079;-82
2020/12/31 07:06:21;;;;;;;17.48;8.68;;;3.70;99.90;;;;;;5045072;28;20025;-80
2020/12/31 07:08:48;;;;;;;15.18;8.10;;;3.70;99.90;;;;;;5027098;28;20021;-81
2020/12/31 07:11:14;;;;;;;16.90;7.82;;;3.70;99.90;;;;;;5027369;28;20065;-81
2020/12/31 07:13:40;;;;;;;15.52;7.50;;;3.70;99.90;;;;;;5044420;28;20053;-83
2020/12/31 07:16:06;;;;;;;20.63;8.55;;;3.70;99.90;;;;;;5026588;28;20477;-81
2020/12/31 07:18:35;;;;;;;12.55;7.03;;;3.70;99.90;;;;;;5044575;28;20124;-82
2020/12/31 07:21:00;;;;;;;21.77;8.23;;;3.70;99.90;;;;;;5027084;28;20392;-83
2020/12/31 07:23:39;;;;;;;12.50;7.47;;;3.70;99.90;;;;;;5026395;28;20053;-81
2020/12/31 07:26:04;;;;;;;17.67;8.35;;;3.70;99.90;;;;;;5045050;28;20057;-80
2020/12/31 07:28:42;;;;;;;11.75;7.13;;;3.70;99.90;;;;;;5025891;28;20083;-81
2020/12/31 07:31:10;;;;;;;16.00;8.38;;;3.70;99.90;;;;;;5043802;28;20029;-85
2020/12/31 07:33:49;;;;;;;11.82;6.82;;;3.70;99.90;;;;;;5023036;28;20041;-85
2020/12/31 07:36:15;;;;;;;16.10;7.68;;;3.70;99.90;;;;;;5020438;28;20034;-82
2020/12/31 07:38:46;;;;;;;15.75;8.32;;;3.70;99.90;;;;;;5021999;28;20038;-85
2020/12/31 07:41:22;;;;;;;13.00;6.13;;;3.80;99.90;;;;;;5004936;28;20087;-84
2020/12/31 07:44:19;;;;;;;16.45;7.40;;;3.70;99.90;;;;;;5003411;28;20066;-83
2020/12/31 07:47:46;;;;;;;14.60;7.85;;;3.70;99.90;;;;;;5022706;28;20269;-82
2020/12/31 07:50:12;;;;;;;20.42;7.38;;;3.70;99.90;;;;;;4968949;28;20667;-83
2020/12/31 07:52:40;;;;;;;14.63;8.40;;;3.70;99.90;;;;;;5006064;28;20035;-81
2020/12/31 07:55:06;;;;;;;12.27;6.45;;;3.70;99.90;;;;;;5005436;28;20102;-85
2020/12/31 07:57:32;;;;;;;16.35;8.13;;;3.70;99.90;;;;;;5005170;28;20026;-84
2020/12/31 08:00:00;;;;;;;15.43;6.95;;;3.70;99.90;;;;;;5006312;28;20041;-83
2020/12/31 08:02:26;;;;;;;28.13;9.70;;;3.70;99.90;;;;;;5009146;28;20033;-84
2020/12/31 08:04:52;;;;;;;12.05;6.70;;;3.70;99.90;;;;;;5009459;28;20068;-83
2020/12/31 08:07:18;;;;;;;11.98;7.03;;;3.70;99.90;;;;;;5009546;28;20038;-84
2020/12/31 08:09:47;;;;;;;14.88;7.03;;;3.60;99.90;;;;;;5008097;28;20030;-83
2020/12/31 08:12:13;;;;;;;13.85;6.68;;;3.70;99.90;;;;;;5009568;28;20033;-83
2020/12/31 08:14:46;;;;;;;10.27;5.78;;;3.60;99.90;;;;;;5029242;28;20053;-84
2020/12/31 08:17:13;;;;;;;12.15;7.15;;;3.70;99.90;;;;;;5029932;28;20032;-84
2020/12/31 08:19:41;;;;;;;18.00;8.25;;;3.80;99.90;;;;;;5030180;28;20028;-83
2020/12/31 08:22:36;;;;;;;11.00;7.05;;;3.70;99.90;;;;;;5029744;28;20041;-82
2020/12/31 08:25:10;;;;;;;18.23;7.45;;;3.70;99.90;;;;;;5029637;28;20040;-86
2020/12/31 08:27:40;;;;;;;11.00;6.63;;;3.70;99.90;;;;;;5029704;28;20124;-83
2020/12/31 08:30:09;;;;;;;17.13;6.65;;;3.70;99.90;;;;;;5029509;28;20082;-85
2020/12/31 08:32:52;;;;;;;13.98;6.70;;;3.70;99.90;;;;;;5029482;28;20030;-85
2020/12/31 08:35:26;;;;;;;15.27;7.53;;;3.70;99.90;;;;;;5047754;28;20029;-83
2020/12/31 08:38:13;;;;;;;16.33;6.78;;;3.70;99.90;;;;;;5029477;28;20378;-88
2020/12/31 08:40:44;;;;;;;10.77;6.07;;;3.60;99.90;;;;;;5028522;28;20041;-87
2020/12/31 08:43:21;;;;;;;12.85;6.68;;;3.70;99.90;;;;;;5029190;28;20030;-83
2020/12/31 08:45:57;;;;;;;13.32;6.43;;;3.70;99.90;;;;;;5046294;28;20117;-82
2020/12/31 08:48:38;;;;;;;9.80;5.78;;;3.70;99.90;;;;;;5028396;28;20030;-84
2020/12/31 08:51:10;;;;;;;9.40;5.80;;;3.70;99.90;;;;;;5028197;28;20030;-83
2020/12/31 08:53:58;;;;;;;13.07;5.47;;;3.60;99.90;;;;;;5028633;28;20420;-82
2020/12/31 08:56:31;;;;;;;11.40;6.10;;;3.70;99.90;;;;;;5028210;28;20029;-82
2020/12/31 08:59:07;;;;;;;11.18;6.43;;;3.70;99.90;;;;;;5027972;28;20037;-82
2020/12/31 09:01:33;;;;;;;12.52;5.45;;;3.70;99.90;;;;;;5030534;28;20035;-80
2020/12/31 09:04:18;;;;;;;10.43;5.95;;;3.70;99.90;;;;;;5028162;28;20097;-85
2020/12/31 09:06:48;;;;;;;10.05;5.10;;;3.70;99.90;;;;;;5028601;28;20025;-84
2020/12/31 09:09:40;;;;;;;11.95;5.93;;;3.70;99.90;;;;;;5028055;28;20030;-80
2020/12/31 09:12:14;;;;;;;14.00;6.90;;;3.70;99.90;;;;;;5044960;28;20092;-83
2020/12/31 09:14:54;;;;;;;;;;;3.80;99.90;;;;;;5028801;28;20064;-83
2020/12/31 09:17:33;;;;;;;12.23;6.43;;;3.70;99.90;;;;;;5214581;22;19929;-82
2020/12/31 09:19:58;;;;;;;12.05;6.18;;;3.80;99.90;;;;;;4992812;28;20059;-83
2020/12/31 09:22:25;;;;;;;12.45;6.85;;;3.70;99.90;;;;;;4992583;28;20502;-84
2020/12/31 09:24:51;;;;;;;11.00;5.40;;;3.80;99.90;;;;;;4998776;28;20054;-82
2020/12/31 09:27:24;;;;;;;13.35;6.43;;;3.80;99.90;;;;;;4995417;28;20038;-84
2020/12/31 09:30:00;;;;;;;7.85;5.18;;;3.80;99.90;;;;;;5004819;28;20029;-83
2020/12/31 09:32:26;;;;;;;14.93;7.18;;;3.80;99.90;;;;;;4999534;28;20034;-83
2020/12/31 09:34:51;;;;;;;14.10;6.70;;;3.90;99.90;;;;;;5006749;28;20032;-83
2020/12/31 09:37:17;;;;;;;14.30;7.18;;;3.90;99.90;;;;;;5008856;28;20049;-81
2020/12/31 09:39:43;;;;;;;11.32;6.45;;;3.90;99.90;;;;;;5006692;28;20065;-84
2020/12/31 09:42:10;;;;;;;13.48;7.60;;;4.00;99.90;;;;;;5007810;28;20054;-82
2020/12/31 09:44:36;;;;;;;11.80;6.13;;;4.00;99.90;;;;;;5007735;28;20105;-83
2020/12/31 09:47:02;;;;;;;13.25;6.88;;;4.10;99.90;;;;;;5008149;28;20040;-79
2020/12/31 09:49:27;;;;;;;13.45;6.70;;;4.10;99.90;;;;;;5008580;28;20029;-83
2020/12/31 09:51:53;;;;;;;16.15;7.00;;;4.10;99.90;;;;;;5008820;28;20097;-82
2020/12/31 09:54:19;;;;;;;12.60;6.30;;;4.10;99.90;;;;;;5007978;28;20541;-80
2020/12/31 09:56:45;;;;;;;15.13;6.70;;;4.10;99.90;;;;;;5008140;28;20113;-81
2020/12/31 09:59:10;;;;;;;12.90;6.32;;;4.10;99.90;;;;;;5008001;28;20029;-84
2020/12/31 10:01:36;;;;;;;12.73;6.05;;;4.10;99.90;;;;;;5008301;28;20029;-80
2020/12/31 10:04:02;;;;;;;9.13;5.55;;;4.10;99.90;;;;;;5026540;28;20054;-83
2020/12/31 10:06:27;;;;;;;9.20;4.72;;;4.10;99.90;;;;;;5007979;28;20026;-84
2020/12/31 10:08:53;;;;;;;12.43;5.55;;;4.10;99.90;;;;;;5008524;28;20065;-81
2020/12/31 10:11:19;;;;;;;8.65;5.70;;;4.10;99.90;;;;;;5009160;28;20038;-83
2020/12/31 10:13:46;;;;;;;9.18;5.30;;;4.10;99.90;;;;;;5025934;28;20030;-81
2020/12/31 10:16:12;;;;;;;15.88;6.18;;;4.10;99.90;;;;;;5007990;28;20026;-82
2020/12/31 10:18:38;;;;;;;11.52;5.65;;;4.20;99.90;;;;;;5007654;28;20076;-79
2020/12/31 10:21:03;;;;;;;17.20;6.35;;;4.30;99.90;;;;;;5025453;28;20073;-81
2020/12/31 10:23:29;;;;;;;11.85;5.80;;;4.20;99.90;;;;;;5025142;28;20481;-81
2020/12/31 10:25:56;;;;;;;10.57;5.38;;;4.10;99.90;;;;;;5007870;28;20370;-82
2020/12/31 10:28:22;;;;;;;16.05;6.05;;;4.20;99.90;;;;;;5007397;28;20033;-83
2020/12/31 10:30:48;;;;;;;10.95;5.68;;;4.20;99.90;;;;;;5025690;28;20048;-81
2020/12/31 10:33:14;;;;;;;8.13;5.15;;;4.20;99.90;;;;;;5007313;28;20065;-80
2020/12/31 10:35:40;;;;;;;8.23;4.40;;;4.20;99.90;;;;;;5007669;28;20033;-81
2020/12/31 10:38:05;;;;;;;8.07;4.43;;;4.20;99.90;;;;;;5025324;28;20029;-79
2020/12/31 10:40:31;;;;;;;13.23;5.47;;;4.20;99.90;;;;;;5007324;28;20045;-82
2020/12/31 10:42:56;;;;;;;14.82;6.50;;;4.30;99.90;;;;;;5006985;28;20021;-83
2020/12/31 10:45:28;;;;;;;12.07;6.57;;;4.20;99.90;;;;;;5025399;28;20437;-83
2020/12/31 10:48:07;;;;;;;17.70;6.53;;;4.20;99.90;;;;;;5007520;28;20036;-83
2020/12/31 10:50:33;;;;;;;12.50;5.50;;;4.20;99.90;;;;;;5008994;28;20056;-83
2020/12/31 10:52:59;;;;;;;14.80;6.03;;;4.20;99.90;;;;;;5007415;28;20026;-86
2020/12/31 10:55:24;;;;;;;14.05;5.53;;;4.20;99.90;;;;;;5007590;28;20022;-83
2020/12/31 10:57:50;;;;;;;12.90;5.72;;;4.20;99.90;;;;;;5025467;28;20026;-81
2020/12/31 11:00:15;;;;;;;15.35;6.93;;;4.20;99.90;;;;;;5007487;28;20040;-84
2020/12/31 11:02:41;;;;;;;7.85;4.70;;;4.30;99.90;;;;;;5007142;28;20052;-83
2020/12/31 11:05:07;;;;;;;10.65;4.82;;;4.30;99.90;;;;;;5025042;28;20493;-82
2020/12/31 11:07:33;;;;;;;10.07;5.15;;;4.30;99.90;;;;;;5006976;28;20024;-84
2020/12/31 11:09:58;;;;;;;10.70;5.25;;;4.40;99.90;;;;;;5005596;28;20086;-82
2020/12/31 11:12:24;;;;;;;6.68;4.05;;;4.40;99.90;;;;;;5007514;28;20030;-83
2020/12/31 11:14:50;;;;;;;15.63;5.53;;;4.40;99.90;;;;;;5007284;28;20030;-81
2020/12/31 11:17:16;;;;;;;10.02;4.45;;;4.40;99.90;;;;;;5005955;28;20058;-84
2020/12/31 11:19:41;;;;;;;9.35;4.15;;;4.40;99.90;;;;;;5006664;28;20044;-83
2020/12/31 11:22:10;;;;;;;11.15;4.30;;;4.40;99.90;;;;;;5005750;28;20040;-84
2020/12/31 11:24:35;;;;;;;8.30;4.45;;;4.40;99.90;;;;;;5005982;28;20076;-82
2020/12/31 11:27:01;;;;;;;9.02;4.25;;;4.50;99.90;;;;;;5007115;28;20022;-84
2020/12/31 11:29:27;;;;;;;10.05;4.15;;;4.50;99.90;;;;;;5006642;28;20034;-86
2020/12/31 11:31:52;;;;;;;9.63;5.97;;;4.50;99.90;;;;;;5007180;28;20026;-83
2020/12/31 11:34:18;;;;;;;11.05;5.93;;;4.50;99.90;;;;;;5007475;28;20034;-84
2020/12/31 11:36:44;;;;;;;11.95;5.93;;;4.50;99.90;;;;;;5010589;28;20029;-86
2020/12/31 11:39:09;;;;;;;11.02;5.05;;;4.50;99.90;;;;;;5010661;28;20017;-88
2020/12/31 11:41:35;;;;;;;11.32;5.55;;;4.50;99.90;;;;;;5010871;28;20046;-82
2020/12/31 11:44:01;;;;;;;10.52;4.30;;;4.50;99.90;;;;;;5010803;28;20037;-85
2020/12/31 11:46:27;;;;;;;8.45;4.97;;;4.40;99.90;;;;;;5012317;28;20029;-85
2020/12/31 11:48:53;;;;;;;10.43;4.95;;;4.40;99.90;;;;;;5007643;28;20041;-83
2020/12/31 11:51:18;;;;;;;10.90;4.50;;;4.50;99.90;;;;;;4994330;28;20097;-82
2020/12/31 11:53:44;;;;;;;10.05;4.45;;;4.40;99.90;;;;;;4992308;28;20034;-80
2020/12/31 11:56:09;;;;;;;9.55;4.63;;;4.50;99.90;;;;;;4996182;28;20026;-79
2020/12/31 11:58:35;;;;;;;8.82;3.45;;;4.40;99.90;;;;;;4996339;28;20023;-80
2020/12/31 12:01:01;;;;;;;10.20;5.15;;;4.40;99.90;;;;;;5010613;28;20041;-82
2020/12/31 12:03:28;;;;;;;20.30;9.23;;;4.40;99.90;;;;;;5013523;28;20029;-84
2020/12/31 12:05:56;;;;;;;16.50;7.15;;;4.40;99.90;;;;;;5010393;28;20474;-83
2020/12/31 12:08:27;;;;;;;16.52;5.15;;;4.40;99.90;;;;;;5010654;28;20060;-84
2020/12/31 12:10:53;;;;;;;11.00;5.78;;;4.40;99.90;;;;;;5027412;28;20033;-83
2020/12/31 12:13:19;;;;;;;12.70;5.65;;;4.30;99.90;;;;;;5009856;28;20026;-82
2020/12/31 12:15:44;;;;;;;10.52;5.03;;;4.40;99.90;;;;;;5010058;28;20045;-84
2020/12/31 12:18:10;;;;;;;11.60;4.53;;;4.40;99.90;;;;;;5009227;28;20111;-84
2020/12/31 12:20:36;;;;;;;12.55;4.88;;;4.40;99.90;;;;;;5009249;28;20049;-81
2020/12/31 12:23:02;;;;;;;8.10;4.55;;;4.40;99.90;;;;;;5009630;28;20029;-83
2020/12/31 12:25:28;;;;;;;10.98;4.40;;;4.40;99.90;;;;;;5027455;28;20398;-84
2020/12/31 12:27:53;;;;;;;12.85;4.90;;;4.40;99.90;;;;;;5009730;28;20236;-82
2020/12/31 12:30:20;;;;;;;7.22;4.07;;;4.40;99.90;;;;;;5009421;28;20042;-84
2020/12/31 12:32:46;;;;;;;10.43;4.95;;;4.40;99.90;;;;;;5008875;28;20034;-83
2020/12/31 12:35:12;;;;;;;11.90;4.97;;;4.40;99.90;;;;;;5009603;28;20037;-82
2020/12/31 12:37:38;;;;;;;11.00;4.30;;;4.40;99.90;;;;;;5009445;28;20056;-80
2020/12/31 12:40:06;;;;;;;13.07;5.03;;;4.50;99.90;;;;;;5009091;28;20093;-83
2020/12/31 12:42:33;;;;;;;12.52;5.15;;;4.50;99.90;;;;;;5009591;28;20108;-84
2020/12/31 12:44:59;;;;;;;7.03;3.90;;;4.50;99.90;;;;;;5009762;28;20037;-82
2020/12/31 12:47:26;;;;;;;6.53;3.58;;;4.50;99.90;;;;;;5008634;28;20488;-82
2020/12/31 12:49:51;;;;;;;12.63;4.35;;;4.50;99.90;;;;;;5009499;28;20057;-80
2020/12/31 12:52:17;;;;;;;6.72;3.50;;;4.60;99.90;;;;;;5009337;28;20030;-84
2020/12/31 12:54:42;;;;;;;7.40;3.65;;;4.60;99.90;;;;;;5008955;28;20030;-85
2020/12/31 12:57:08;;;;;;;8.93;4.05;;;4.70;99.90;;;;;;5010263;28;20137;-87
2020/12/31 12:59:34;;;;;;;9.27;4.13;;;4.70;99.90;;;;;;5009297;28;20063;-82
2020/12/31 13:01:59;;;;;;;8.68;4.82;;;4.70;99.90;;;;;;5008430;28;20026;-84
2020/12/31 13:04:26;;;;;;;3.72;2.38;;;4.80;99.90;;;;;;5009364;28;20374;-83
2020/12/31 13:06:52;;;;;;;9.20;3.80;;;4.80;99.90;;;;;;5008798;28;20033;-81
2020/12/31 13:09:18;;;;;;;7.55;3.53;;;4.80;99.90;;;;;;5026424;28;20037;-84
2020/12/31 13:11:44;;;;;;;6.60;3.03;;;4.80;99.90;;;;;;5009289;28;20482;-85
2020/12/31 13:14:10;;;;;;;9.38;3.90;;;4.90;99.90;;;;;;5009236;28;20117;-82
2020/12/31 13:16:36;;;;;;;8.27;3.05;;;4.90;99.90;;;;;;5008379;28;20505;-84
2020/12/31 13:19:02;;;;;;;6.13;2.95;;;4.90;99.90;;;;;;5008324;28;20049;-82
2020/12/31 13:21:28;;;;;;;3.58;2.60;;;4.90;99.90;;;;;;5026540;28;20553;-83
2020/12/31 13:23:53;;;;;;;5.05;2.97;;;4.80;99.90;;;;;;5008584;28;20054;-82
2020/12/31 13:26:19;;;;;;;6.32;3.75;;;4.80;99.90;;;;;;5008809;28;20034;-82
2020/12/31 13:28:45;;;;;;;6.55;3.67;;;4.80;99.90;;;;;;5008229;28;20076;-81
2020/12/31 13:31:10;;;;;;;9.10;3.75;;;4.80;99.90;;;;;;5007751;28;20072;-83
2020/12/31 13:33:36;;;;;;;6.82;3.80;;;4.80;99.90;;;;;;5007958;28;20034;-83
2020/12/31 13:36:02;;;;;;;9.43;4.38;;;4.80;99.90;;;;;;5007865;28;20473;-83
2020/12/31 13:38:28;;;;;;;8.70;4.50;;;4.80;99.90;;;;;;5008738;28;20033;-83
2020/12/31 13:40:53;;;;;;;7.63;4.25;;;4.90;99.90;;;;;;5008356;28;20042;-81
2020/12/31 13:43:19;;;;;;;12.18;4.47;;;4.80;99.90;;;;;;5008682;28;20041;-80
2020/12/31 13:45:45;;;;;;;9.70;5.63;;;4.70;99.90;;;;;;5008308;28;20049;-79
2020/12/31 13:48:11;;;;;;;9.90;4.75;;;4.80;99.90;;;;;;5025656;28;20188;-79
2020/12/31 13:50:37;;;;;;;8.75;4.20;;;4.70;99.90;;;;;;5007318;28;20054;-78
2020/12/31 13:53:03;;;;;;;9.90;4.93;;;4.70;99.90;;;;;;5025949;28;20081;-81
2020/12/31 13:55:28;;;;;;;9.70;3.88;;;4.60;99.90;;;;;;5025784;28;20037;-80
2020/12/31 13:57:55;;;;;;;11.38;5.47;;;4.60;99.90;;;;;;5006886;28;20026;-82
2020/12/31 14:00:21;;;;;;;9.65;4.05;;;4.60;99.90;;;;;;5008471;28;20034;-83